sensor_id;sensor_type;location;lat;lon;timestamp;temperature;humidity
40738;DHT22;54759;48.094;-1.628;2022-08-11T00:02:52;25.20;48.10
40738;DHT22;54759;48.094;-1.628;2022-08-11T00:05:55;25.10;48.10
40738;DHT22;54759;48.094;-1.628;2022-08-11T00:09:00;25.20;48.40
40738;DHT22;54759;48.094;-1.628;2022-08-11T00:12:03;25.20;48.30
40738;DHT22;54759;48.094;-1.628;2022-08-11T00:15:05;25.20;48.40
40738;DHT22;54759;48.094;-1.628;2022-08-11T00:18:08;25.10;48.40
40738;DHT22;54759;48.094;-1.628;2022-08-11T00:21:12;25.10;48.40
40738;DHT22;54759;48.094;-1.628;2022-08-11T00:24:15;25.00;48.40
40738;DHT22;54759;48.094;-1.628;2022-08-11T00:27:17;25.10;48.60
40738;DHT22;54759;48.094;-1.628;2022-08-11T00:30:19;25.10;48.60
40738;DHT22;54759;48.094;-1.628;2022-08-11T00:33:24;25.00;48.70
40738;DHT22;54759;48.094;-1.628;2022-08-11T00:36:49;25.10;48.70
40738;DHT22;54759;48.094;-1.628;2022-08-11T00:39:53;25.10;48.80
40738;DHT22;54759;48.094;-1.628;2022-08-11T00:43:12;25.00;48.90
40738;DHT22;54759;48.094;-1.628;2022-08-11T00:46:31;25.00;49.00
40738;DHT22;54759;48.094;-1.628;2022-08-11T00:49:44;24.90;49.00
40738;DHT22;54759;48.094;-1.628;2022-08-11T00:53:04;24.90;49.10
40738;DHT22;54759;48.094;-1.628;2022-08-11T00:56:27;25.10;49.90
40738;DHT22;54759;48.094;-1.628;2022-08-11T00:59:54;25.00;49.30
40738;DHT22;54759;48.094;-1.628;2022-08-11T01:03:13;25.10;50.10
40738;DHT22;54759;48.094;-1.628;2022-08-11T01:06:31;25.10;49.50
40738;DHT22;54759;48.094;-1.628;2022-08-11T01:09:53;24.90;49.50
40738;DHT22;54759;48.094;-1.628;2022-08-11T01:13:07;25.00;49.60
40738;DHT22;54759;48.094;-1.628;2022-08-11T01:16:36;24.90;49.60
40738;DHT22;54759;48.094;-1.628;2022-08-11T01:20:09;25.00;49.80
40738;DHT22;54759;48.094;-1.628;2022-08-11T01:27:20;24.80;49.80
40738;DHT22;54759;48.094;-1.628;2022-08-11T01:34:18;24.70;50.60
40738;DHT22;54759;48.094;-1.628;2022-08-11T01:41:14;24.90;50.20
40738;DHT22;54759;48.094;-1.628;2022-08-11T01:44:40;24.80;50.20
40738;DHT22;54759;48.094;-1.628;2022-08-11T01:47:59;24.80;50.30
40738;DHT22;54759;48.094;-1.628;2022-08-11T01:51:22;24.70;50.30
40738;DHT22;54759;48.094;-1.628;2022-08-11T01:54:29;24.70;50.40
40738;DHT22;54759;48.094;-1.628;2022-08-11T01:57:36;24.80;50.40
40738;DHT22;54759;48.094;-1.628;2022-08-11T02:00:49;24.80;50.50
40738;DHT22;54759;48.094;-1.628;2022-08-11T02:03:56;24.70;50.50
40738;DHT22;54759;48.094;-1.628;2022-08-11T02:07:03;24.80;50.60
40738;DHT22;54759;48.094;-1.628;2022-08-11T02:10:20;24.80;50.60
40738;DHT22;54759;48.094;-1.628;2022-08-11T02:13:45;24.70;50.60
40738;DHT22;54759;48.094;-1.628;2022-08-11T02:17:01;24.80;50.70
40738;DHT22;54759;48.094;-1.628;2022-08-11T02:20:15;24.60;50.60
40738;DHT22;54759;48.094;-1.628;2022-08-11T02:23:42;24.60;50.60
40738;DHT22;54759;48.094;-1.628;2022-08-11T02:27:15;24.70;50.80
40738;DHT22;54759;48.094;-1.628;2022-08-11T02:30:24;24.70;50.70
40738;DHT22;54759;48.094;-1.628;2022-08-11T02:33:30;24.70;50.80
40738;DHT22;54759;48.094;-1.628;2022-08-11T02:36:41;24.80;50.80
40738;DHT22;54759;48.094;-1.628;2022-08-11T02:39:51;24.60;50.70
40738;DHT22;54759;48.094;-1.628;2022-08-11T02:43:07;24.60;50.70
40738;DHT22;54759;48.094;-1.628;2022-08-11T02:46:26;24.70;50.80
40738;DHT22;54759;48.094;-1.628;2022-08-11T02:49:41;24.80;50.80
40738;DHT22;54759;48.094;-1.628;2022-08-11T02:53:12;24.60;50.70
40738;DHT22;54759;48.094;-1.628;2022-08-11T02:56:22;24.70;50.80
40738;DHT22;54759;48.094;-1.628;2022-08-11T02:59:36;24.70;50.80
40738;DHT22;54759;48.094;-1.628;2022-08-11T03:06:27;24.70;50.80
40738;DHT22;54759;48.094;-1.628;2022-08-11T03:09:42;24.60;50.70
40738;DHT22;54759;48.094;-1.628;2022-08-11T03:12:52;24.70;50.80
40738;DHT22;54759;48.094;-1.628;2022-08-11T03:16:20;24.60;50.80
40738;DHT22;54759;48.094;-1.628;2022-08-11T03:19:45;24.70;50.80
40738;DHT22;54759;48.094;-1.628;2022-08-11T03:22:52;24.70;50.90
40738;DHT22;54759;48.094;-1.628;2022-08-11T03:26:02;24.70;51.00
40738;DHT22;54759;48.094;-1.628;2022-08-11T03:29:11;24.70;51.00
40738;DHT22;54759;48.094;-1.628;2022-08-11T03:32:28;24.70;51.00
40738;DHT22;54759;48.094;-1.628;2022-08-11T03:35:35;24.70;50.90
40738;DHT22;54759;48.094;-1.628;2022-08-11T03:38:55;24.80;50.90
40738;DHT22;54759;48.094;-1.628;2022-08-11T03:42:05;24.80;50.90
40738;DHT22;54759;48.094;-1.628;2022-08-11T03:45:21;24.90;51.00
40738;DHT22;54759;48.094;-1.628;2022-08-11T03:48:36;24.80;51.00
40738;DHT22;54759;48.094;-1.628;2022-08-11T03:51:47;24.80;50.90
40738;DHT22;54759;48.094;-1.628;2022-08-11T03:55:01;24.60;50.80
40738;DHT22;54759;48.094;-1.628;2022-08-11T03:58:14;24.70;50.80
40738;DHT22;54759;48.094;-1.628;2022-08-11T04:01:40;24.80;50.80
40738;DHT22;54759;48.094;-1.628;2022-08-11T04:12:06;24.70;50.70
40738;DHT22;54759;48.094;-1.628;2022-08-11T04:15:34;24.70;50.70
40738;DHT22;54759;48.094;-1.628;2022-08-11T04:22:46;24.70;50.70
40738;DHT22;54759;48.094;-1.628;2022-08-11T04:26:11;24.70;50.60
40738;DHT22;54759;48.094;-1.628;2022-08-11T04:29:34;24.70;50.60
40738;DHT22;54759;48.094;-1.628;2022-08-11T04:36:46;24.80;50.50
40738;DHT22;54759;48.094;-1.628;2022-08-11T04:40:36;24.70;50.40
40738;DHT22;54759;48.094;-1.628;2022-08-11T04:47:40;24.70;50.40
40738;DHT22;54759;48.094;-1.628;2022-08-11T04:51:20;24.80;50.30
40738;DHT22;54759;48.094;-1.628;2022-08-11T04:54:52;24.80;50.30
40738;DHT22;54759;48.094;-1.628;2022-08-11T04:58:18;24.80;50.20
40738;DHT22;54759;48.094;-1.628;2022-08-11T05:01:53;24.70;50.10
40738;DHT22;54759;48.094;-1.628;2022-08-11T05:05:08;24.70;50.10
40738;DHT22;54759;48.094;-1.628;2022-08-11T05:08:48;24.80;50.20
40738;DHT22;54759;48.094;-1.628;2022-08-11T05:12:05;24.80;50.10
40738;DHT22;54759;48.094;-1.628;2022-08-11T05:15:12;24.70;50.00
40738;DHT22;54759;48.094;-1.628;2022-08-11T05:18:31;24.80;50.00
40738;DHT22;54759;48.094;-1.628;2022-08-11T05:21:56;24.90;50.10
40738;DHT22;54759;48.094;-1.628;2022-08-11T05:25:16;24.80;50.00
40738;DHT22;54759;48.094;-1.628;2022-08-11T05:28:55;24.80;50.00
40738;DHT22;54759;48.094;-1.628;2022-08-11T05:32:22;24.70;49.80
40738;DHT22;54759;48.094;-1.628;2022-08-11T05:35:40;24.70;49.80
40738;DHT22;54759;48.094;-1.628;2022-08-11T05:39:11;24.70;49.80
40738;DHT22;54759;48.094;-1.628;2022-08-11T05:42:41;24.70;49.70
40738;DHT22;54759;48.094;-1.628;2022-08-11T05:45:59;24.80;49.70
40738;DHT22;54759;48.094;-1.628;2022-08-11T05:49:15;24.70;49.60
40738;DHT22;54759;48.094;-1.628;2022-08-11T05:52:32;24.80;49.70
40738;DHT22;54759;48.094;-1.628;2022-08-11T05:55:50;24.80;49.60
40738;DHT22;54759;48.094;-1.628;2022-08-11T05:59:11;24.70;49.50
40738;DHT22;54759;48.094;-1.628;2022-08-11T06:02:13;24.70;49.50
40738;DHT22;54759;48.094;-1.628;2022-08-11T06:05:16;24.70;49.60
40738;DHT22;54759;48.094;-1.628;2022-08-11T06:08:27;24.90;49.60
40738;DHT22;54759;48.094;-1.628;2022-08-11T06:11:30;24.80;49.50
40738;DHT22;54759;48.094;-1.628;2022-08-11T06:14:44;24.90;49.70
40738;DHT22;54759;48.094;-1.628;2022-08-11T06:17:47;24.80;49.50
40738;DHT22;54759;48.094;-1.628;2022-08-11T06:20:52;24.80;49.50
40738;DHT22;54759;48.094;-1.628;2022-08-11T06:23:55;24.90;49.50
40738;DHT22;54759;48.094;-1.628;2022-08-11T06:26:58;24.90;49.50
40738;DHT22;54759;48.094;-1.628;2022-08-11T06:30:13;24.90;49.40
40738;DHT22;54759;48.094;-1.628;2022-08-11T06:33:20;24.90;49.40
40738;DHT22;54759;48.094;-1.628;2022-08-11T06:36:35;24.90;49.30
40738;DHT22;54759;48.094;-1.628;2022-08-11T06:39:44;24.90;49.30
40738;DHT22;54759;48.094;-1.628;2022-08-11T06:42:55;24.90;49.30
40738;DHT22;54759;48.094;-1.628;2022-08-11T06:46:00;24.90;49.30
40738;DHT22;54759;48.094;-1.628;2022-08-11T06:49:05;24.70;49.20
40738;DHT22;54759;48.094;-1.628;2022-08-11T06:52:30;24.90;49.30
40738;DHT22;54759;48.094;-1.628;2022-08-11T06:55:47;25.00;49.30
40738;DHT22;54759;48.094;-1.628;2022-08-11T06:59:05;25.10;49.30
40738;DHT22;54759;48.094;-1.628;2022-08-11T07:02:21;24.90;49.20
40738;DHT22;54759;48.094;-1.628;2022-08-11T07:05:39;25.00;49.30
40738;DHT22;54759;48.094;-1.628;2022-08-11T07:09:05;25.10;49.30
40738;DHT22;54759;48.094;-1.628;2022-08-11T07:12:37;25.10;49.40
40738;DHT22;54759;48.094;-1.628;2022-08-11T07:15:59;25.10;49.20
40738;DHT22;54759;48.094;-1.628;2022-08-11T07:19:15;25.10;49.10
40738;DHT22;54759;48.094;-1.628;2022-08-11T07:22:30;25.10;49.10
40738;DHT22;54759;48.094;-1.628;2022-08-11T07:25:51;25.20;49.10
40738;DHT22;54759;48.094;-1.628;2022-08-11T07:29:09;25.20;49.00
40738;DHT22;54759;48.094;-1.628;2022-08-11T07:32:17;25.20;49.00
40738;DHT22;54759;48.094;-1.628;2022-08-11T07:35:26;25.30;49.00
40738;DHT22;54759;48.094;-1.628;2022-08-11T07:38:37;25.20;48.80
40738;DHT22;54759;48.094;-1.628;2022-08-11T07:41:49;25.30;48.80
40738;DHT22;54759;48.094;-1.628;2022-08-11T07:44:51;25.30;48.40
40738;DHT22;54759;48.094;-1.628;2022-08-11T07:48:09;25.40;48.60
40738;DHT22;54759;48.094;-1.628;2022-08-11T07:51:25;25.30;48.40
40738;DHT22;54759;48.094;-1.628;2022-08-11T07:54:38;25.30;48.30
40738;DHT22;54759;48.094;-1.628;2022-08-11T07:57:44;25.30;48.20
40738;DHT22;54759;48.094;-1.628;2022-08-11T08:01:19;25.30;48.20
40738;DHT22;54759;48.094;-1.628;2022-08-11T08:04:39;25.40;48.00
40738;DHT22;54759;48.094;-1.628;2022-08-11T08:07:56;25.30;47.80
40738;DHT22;54759;48.094;-1.628;2022-08-11T08:11:08;25.30;47.70
40738;DHT22;54759;48.094;-1.628;2022-08-11T08:14:29;25.40;47.60
40738;DHT22;54759;48.094;-1.628;2022-08-11T08:17:45;25.20;47.30
40738;DHT22;54759;48.094;-1.628;2022-08-11T08:21:17;25.40;47.40
40738;DHT22;54759;48.094;-1.628;2022-08-11T08:24:20;25.40;47.10
40738;DHT22;54759;48.094;-1.628;2022-08-11T08:27:22;25.30;46.90
40738;DHT22;54759;48.094;-1.628;2022-08-11T08:30:32;25.30;46.60
40738;DHT22;54759;48.094;-1.628;2022-08-11T08:33:47;25.50;46.60
40738;DHT22;54759;48.094;-1.628;2022-08-11T08:36:51;25.30;46.30
40738;DHT22;54759;48.094;-1.628;2022-08-11T08:39:53;25.50;46.20
40738;DHT22;54759;48.094;-1.628;2022-08-11T08:42:57;25.40;46.00
40738;DHT22;54759;48.094;-1.628;2022-08-11T08:45:59;25.50;45.90
40738;DHT22;54759;48.094;-1.628;2022-08-11T08:49:02;25.50;45.70
40738;DHT22;54759;48.094;-1.628;2022-08-11T08:52:07;25.50;45.60
40738;DHT22;54759;48.094;-1.628;2022-08-11T08:55:29;25.50;45.40
40738;DHT22;54759;48.094;-1.628;2022-08-11T08:58:34;25.40;45.30
40738;DHT22;54759;48.094;-1.628;2022-08-11T09:01:45;25.50;45.00
40738;DHT22;54759;48.094;-1.628;2022-08-11T09:04:48;25.50;44.80
40738;DHT22;54759;48.094;-1.628;2022-08-11T09:07:53;25.50;44.50
40738;DHT22;54759;48.094;-1.628;2022-08-11T09:10:58;25.50;44.20
40738;DHT22;54759;48.094;-1.628;2022-08-11T09:14:15;25.60;44.00
40738;DHT22;54759;48.094;-1.628;2022-08-11T09:17:18;25.60;43.80
40738;DHT22;54759;48.094;-1.628;2022-08-11T09:20:22;25.50;43.50
40738;DHT22;54759;48.094;-1.628;2022-08-11T09:23:25;25.50;43.30
40738;DHT22;54759;48.094;-1.628;2022-08-11T09:26:58;25.60;43.00
40738;DHT22;54759;48.094;-1.628;2022-08-11T09:30:05;25.50;42.80
40738;DHT22;54759;48.094;-1.628;2022-08-11T09:33:14;25.60;42.60
40738;DHT22;54759;48.094;-1.628;2022-08-11T09:36:17;25.50;42.20
40738;DHT22;54759;48.094;-1.628;2022-08-11T09:39:38;25.60;42.10
40738;DHT22;54759;48.094;-1.628;2022-08-11T09:42:56;25.50;41.70
40738;DHT22;54759;48.094;-1.628;2022-08-11T09:46:08;25.50;41.60
40738;DHT22;54759;48.094;-1.628;2022-08-11T09:49:11;25.50;41.40
40738;DHT22;54759;48.094;-1.628;2022-08-11T09:52:17;25.50;41.20
40738;DHT22;54759;48.094;-1.628;2022-08-11T09:55:19;25.60;41.10
40738;DHT22;54759;48.094;-1.628;2022-08-11T09:58:21;25.60;40.90
40738;DHT22;54759;48.094;-1.628;2022-08-11T10:01:46;25.60;40.60
40738;DHT22;54759;48.094;-1.628;2022-08-11T10:04:52;25.60;40.40
40738;DHT22;54759;48.094;-1.628;2022-08-11T10:08:17;25.70;40.20
40738;DHT22;54759;48.094;-1.628;2022-08-11T10:11:22;25.70;40.00
40738;DHT22;54759;48.094;-1.628;2022-08-11T10:14:27;25.70;39.80
40738;DHT22;54759;48.094;-1.628;2022-08-11T10:17:48;25.80;39.70
40738;DHT22;54759;48.094;-1.628;2022-08-11T10:21:11;25.80;39.50
40738;DHT22;54759;48.094;-1.628;2022-08-11T10:24:15;25.80;39.40
40738;DHT22;54759;48.094;-1.628;2022-08-11T10:27:28;25.80;39.30
40738;DHT22;54759;48.094;-1.628;2022-08-11T10:30:51;25.80;39.20
40738;DHT22;54759;48.094;-1.628;2022-08-11T10:34:14;25.80;39.10
40738;DHT22;54759;48.094;-1.628;2022-08-11T10:37:22;25.70;38.90
40738;DHT22;54759;48.094;-1.628;2022-08-11T10:40:24;25.80;38.90
40738;DHT22;54759;48.094;-1.628;2022-08-11T10:43:26;25.80;38.60
40738;DHT22;54759;48.094;-1.628;2022-08-11T10:46:48;25.80;38.40
40738;DHT22;54759;48.094;-1.628;2022-08-11T10:50:08;25.80;38.20
40738;DHT22;54759;48.094;-1.628;2022-08-11T10:53:25;25.70;37.90
40738;DHT22;54759;48.094;-1.628;2022-08-11T10:56:38;25.80;37.80
40738;DHT22;54759;48.094;-1.628;2022-08-11T10:59:56;25.80;37.70
40738;DHT22;54759;48.094;-1.628;2022-08-11T11:02:58;25.90;37.50
40738;DHT22;54759;48.094;-1.628;2022-08-11T11:06:24;25.80;37.20
40738;DHT22;54759;48.094;-1.628;2022-08-11T11:09:32;25.80;37.10
40738;DHT22;54759;48.094;-1.628;2022-08-11T11:12:38;25.80;36.90
40738;DHT22;54759;48.094;-1.628;2022-08-11T11:15:57;25.60;36.50
40738;DHT22;54759;48.094;-1.628;2022-08-11T11:19:14;25.80;36.60
40738;DHT22;54759;48.094;-1.628;2022-08-11T11:22:20;25.80;36.50
40738;DHT22;54759;48.094;-1.628;2022-08-11T11:25:57;25.80;36.30
40738;DHT22;54759;48.094;-1.628;2022-08-11T11:29:19;25.80;36.00
40738;DHT22;54759;48.094;-1.628;2022-08-11T11:32:36;25.70;35.80
40738;DHT22;54759;48.094;-1.628;2022-08-11T11:35:51;25.70;35.60
40738;DHT22;54759;48.094;-1.628;2022-08-11T11:38:56;25.70;35.30
40738;DHT22;54759;48.094;-1.628;2022-08-11T11:42:01;25.80;35.40
40738;DHT22;54759;48.094;-1.628;2022-08-11T11:45:05;25.70;35.00
40738;DHT22;54759;48.094;-1.628;2022-08-11T11:48:08;25.80;35.00
40738;DHT22;54759;48.094;-1.628;2022-08-11T11:51:12;25.70;34.90
40738;DHT22;54759;48.094;-1.628;2022-08-11T11:54:14;25.60;35.30
40738;DHT22;54759;48.094;-1.628;2022-08-11T11:57:18;25.70;34.60
40738;DHT22;54759;48.094;-1.628;2022-08-11T12:00:35;25.70;34.60
40738;DHT22;54759;48.094;-1.628;2022-08-11T12:03:51;25.70;34.60
40738;DHT22;54759;48.094;-1.628;2022-08-11T12:06:53;25.70;34.60
40738;DHT22;54759;48.094;-1.628;2022-08-11T12:10:16;25.70;34.80
40738;DHT22;54759;48.094;-1.628;2022-08-11T12:13:21;25.70;34.90
40738;DHT22;54759;48.094;-1.628;2022-08-11T12:16:39;26.00;35.10
40738;DHT22;54759;48.094;-1.628;2022-08-11T12:19:42;25.70;34.90
40738;DHT22;54759;48.094;-1.628;2022-08-11T12:22:49;25.80;34.80
40738;DHT22;54759;48.094;-1.628;2022-08-11T12:26:05;25.80;35.00
40738;DHT22;54759;48.094;-1.628;2022-08-11T12:29:28;25.80;35.10
40738;DHT22;54759;48.094;-1.628;2022-08-11T12:32:31;25.90;35.20
40738;DHT22;54759;48.094;-1.628;2022-08-11T12:35:36;25.90;35.30
40738;DHT22;54759;48.094;-1.628;2022-08-11T12:38:37;25.90;35.20
40738;DHT22;54759;48.094;-1.628;2022-08-11T12:41:41;25.90;35.20
40738;DHT22;54759;48.094;-1.628;2022-08-11T12:45:00;25.90;35.30
40738;DHT22;54759;48.094;-1.628;2022-08-11T12:48:27;25.90;35.30
40738;DHT22;54759;48.094;-1.628;2022-08-11T12:52:05;25.90;35.20
40738;DHT22;54759;48.094;-1.628;2022-08-11T12:55:19;26.00;35.30
40738;DHT22;54759;48.094;-1.628;2022-08-11T12:58:40;26.00;35.30
40738;DHT22;54759;48.094;-1.628;2022-08-11T13:01:43;25.90;35.20
40738;DHT22;54759;48.094;-1.628;2022-08-11T13:04:58;25.90;35.20
40738;DHT22;54759;48.094;-1.628;2022-08-11T13:08:02;26.00;35.30
40738;DHT22;54759;48.094;-1.628;2022-08-11T13:11:04;26.00;35.20
40738;DHT22;54759;48.094;-1.628;2022-08-11T13:14:18;26.00;35.10
40738;DHT22;54759;48.094;-1.628;2022-08-11T13:17:20;26.10;35.20
40738;DHT22;54759;48.094;-1.628;2022-08-11T13:20:45;26.00;35.10
40738;DHT22;54759;48.094;-1.628;2022-08-11T13:23:49;26.10;35.20
40738;DHT22;54759;48.094;-1.628;2022-08-11T13:27:03;25.90;35.10
40738;DHT22;54759;48.094;-1.628;2022-08-11T13:30:06;26.10;35.30
40738;DHT22;54759;48.094;-1.628;2022-08-11T13:33:19;26.10;35.40
40738;DHT22;54759;48.094;-1.628;2022-08-11T13:36:22;26.00;35.30
40738;DHT22;54759;48.094;-1.628;2022-08-11T13:39:30;26.00;35.30
40738;DHT22;54759;48.094;-1.628;2022-08-11T13:42:32;25.90;35.20
40738;DHT22;54759;48.094;-1.628;2022-08-11T13:45:35;26.00;35.30
40738;DHT22;54759;48.094;-1.628;2022-08-11T13:48:37;26.10;35.40
40738;DHT22;54759;48.094;-1.628;2022-08-11T13:51:40;25.90;35.20
40738;DHT22;54759;48.094;-1.628;2022-08-11T13:54:45;26.10;35.30
40738;DHT22;54759;48.094;-1.628;2022-08-11T13:57:50;26.10;36.00
40738;DHT22;54759;48.094;-1.628;2022-08-11T14:01:12;26.10;35.30
40738;DHT22;54759;48.094;-1.628;2022-08-11T14:04:38;26.10;35.20
40738;DHT22;54759;48.094;-1.628;2022-08-11T14:07:45;26.00;35.10
40738;DHT22;54759;48.094;-1.628;2022-08-11T14:10:52;25.90;35.00
40738;DHT22;54759;48.094;-1.628;2022-08-11T14:14:32;25.90;34.90
40738;DHT22;54759;48.094;-1.628;2022-08-11T14:17:38;26.00;35.00
40738;DHT22;54759;48.094;-1.628;2022-08-11T14:20:53;26.10;35.10
40738;DHT22;54759;48.094;-1.628;2022-08-11T14:24:09;26.00;35.00
40738;DHT22;54759;48.094;-1.628;2022-08-11T14:27:16;26.20;35.20
40738;DHT22;54759;48.094;-1.628;2022-08-11T14:30:38;26.00;35.00
40738;DHT22;54759;48.094;-1.628;2022-08-11T14:34:02;26.10;35.00
40738;DHT22;54759;48.094;-1.628;2022-08-11T14:37:09;26.00;35.00
40738;DHT22;54759;48.094;-1.628;2022-08-11T14:40:11;26.10;35.00
40738;DHT22;54759;48.094;-1.628;2022-08-11T14:43:35;26.10;35.00
40738;DHT22;54759;48.094;-1.628;2022-08-11T14:47:09;26.10;34.90
40738;DHT22;54759;48.094;-1.628;2022-08-11T14:50:27;26.20;34.90
40738;DHT22;54759;48.094;-1.628;2022-08-11T14:53:29;26.20;34.80
40738;DHT22;54759;48.094;-1.628;2022-08-11T14:56:32;26.20;34.90
40738;DHT22;54759;48.094;-1.628;2022-08-11T14:59:37;26.20;34.80
40738;DHT22;54759;48.094;-1.628;2022-08-11T15:02:41;26.20;34.90
40738;DHT22;54759;48.094;-1.628;2022-08-11T15:05:58;26.30;35.00
40738;DHT22;54759;48.094;-1.628;2022-08-11T15:09:02;26.30;34.90
40738;DHT22;54759;48.094;-1.628;2022-08-11T15:12:11;26.30;34.80
40738;DHT22;54759;48.094;-1.628;2022-08-11T15:15:34;26.30;34.80
40738;DHT22;54759;48.094;-1.628;2022-08-11T15:18:49;26.40;34.90
40738;DHT22;54759;48.094;-1.628;2022-08-11T15:21:50;26.30;34.70
40738;DHT22;54759;48.094;-1.628;2022-08-11T15:25:07;26.30;34.80
40738;DHT22;54759;48.094;-1.628;2022-08-11T15:28:09;26.40;34.80
40738;DHT22;54759;48.094;-1.628;2022-08-11T15:31:28;26.40;34.80
40738;DHT22;54759;48.094;-1.628;2022-08-11T15:34:56;26.40;34.80
40738;DHT22;54759;48.094;-1.628;2022-08-11T15:38:11;26.30;34.60
40738;DHT22;54759;48.094;-1.628;2022-08-11T15:41:16;26.40;34.70
40738;DHT22;54759;48.094;-1.628;2022-08-11T15:44:31;26.40;34.70
40738;DHT22;54759;48.094;-1.628;2022-08-11T15:48:07;26.40;34.70
40738;DHT22;54759;48.094;-1.628;2022-08-11T15:51:17;26.50;34.70
40738;DHT22;54759;48.094;-1.628;2022-08-11T15:54:29;26.40;34.50
40738;DHT22;54759;48.094;-1.628;2022-08-11T15:57:35;26.50;34.60
40738;DHT22;54759;48.094;-1.628;2022-08-11T16:00:49;26.50;34.50
40738;DHT22;54759;48.094;-1.628;2022-08-11T16:04:15;26.50;34.60
40738;DHT22;54759;48.094;-1.628;2022-08-11T16:07:20;26.60;34.60
40738;DHT22;54759;48.094;-1.628;2022-08-11T16:10:28;26.50;34.40
40738;DHT22;54759;48.094;-1.628;2022-08-11T16:13:36;26.60;34.40
40738;DHT22;54759;48.094;-1.628;2022-08-11T16:16:52;26.60;34.30
40738;DHT22;54759;48.094;-1.628;2022-08-11T16:19:56;26.50;34.20
40738;DHT22;54759;48.094;-1.628;2022-08-11T16:23:02;26.50;34.10
40738;DHT22;54759;48.094;-1.628;2022-08-11T16:26:04;26.50;34.00
40738;DHT22;54759;48.094;-1.628;2022-08-11T16:29:28;26.50;34.00
40738;DHT22;54759;48.094;-1.628;2022-08-11T16:32:32;26.60;34.00
40738;DHT22;54759;48.094;-1.628;2022-08-11T16:35:36;26.60;34.60
40738;DHT22;54759;48.094;-1.628;2022-08-11T16:38:48;26.60;33.90
40738;DHT22;54759;48.094;-1.628;2022-08-11T16:41:51;26.60;33.90
40738;DHT22;54759;48.094;-1.628;2022-08-11T16:45:08;26.60;33.70
40738;DHT22;54759;48.094;-1.628;2022-08-11T16:48:27;26.60;33.70
40738;DHT22;54759;48.094;-1.628;2022-08-11T16:51:39;26.60;33.80
40738;DHT22;54759;48.094;-1.628;2022-08-11T16:54:41;26.50;33.60
40738;DHT22;54759;48.094;-1.628;2022-08-11T16:57:45;26.50;33.60
40738;DHT22;54759;48.094;-1.628;2022-08-11T17:01:00;26.60;33.50
40738;DHT22;54759;48.094;-1.628;2022-08-11T17:04:08;26.50;33.40
40738;DHT22;54759;48.094;-1.628;2022-08-11T17:07:33;26.60;33.40
40738;DHT22;54759;48.094;-1.628;2022-08-11T17:10:52;26.60;33.40
40738;DHT22;54759;48.094;-1.628;2022-08-11T17:14:12;26.60;33.30
40738;DHT22;54759;48.094;-1.628;2022-08-11T17:17:19;26.80;33.50
40738;DHT22;54759;48.094;-1.628;2022-08-11T17:20:25;26.60;33.30
40738;DHT22;54759;48.094;-1.628;2022-08-11T17:23:48;26.50;33.30
40738;DHT22;54759;48.094;-1.628;2022-08-11T17:26:51;26.60;33.30
40738;DHT22;54759;48.094;-1.628;2022-08-11T17:29:58;26.60;33.30
40738;DHT22;54759;48.094;-1.628;2022-08-11T17:33:01;26.60;33.30
40738;DHT22;54759;48.094;-1.628;2022-08-11T17:36:19;26.60;33.20
40738;DHT22;54759;48.094;-1.628;2022-08-11T17:39:24;26.50;33.20
40738;DHT22;54759;48.094;-1.628;2022-08-11T17:42:30;26.60;33.10
40738;DHT22;54759;48.094;-1.628;2022-08-11T17:45:47;26.60;33.10
40738;DHT22;54759;48.094;-1.628;2022-08-11T17:48:59;26.60;33.10
40738;DHT22;54759;48.094;-1.628;2022-08-11T17:52:02;26.70;33.10
40738;DHT22;54759;48.094;-1.628;2022-08-11T17:55:21;26.70;33.10
40738;DHT22;54759;48.094;-1.628;2022-08-11T17:58:55;26.70;33.00
40738;DHT22;54759;48.094;-1.628;2022-08-11T18:02:09;26.60;32.80
40738;DHT22;54759;48.094;-1.628;2022-08-11T18:05:37;26.70;32.90
40738;DHT22;54759;48.094;-1.628;2022-08-11T18:08:45;26.60;32.70
40738;DHT22;54759;48.094;-1.628;2022-08-11T18:12:01;26.60;32.70
40738;DHT22;54759;48.094;-1.628;2022-08-11T18:15:17;26.80;32.70
40738;DHT22;54759;48.094;-1.628;2022-08-11T18:18:32;26.80;32.60
40738;DHT22;54759;48.094;-1.628;2022-08-11T18:21:50;26.80;32.50
40738;DHT22;54759;48.094;-1.628;2022-08-11T18:25:20;26.60;32.30
40738;DHT22;54759;48.094;-1.628;2022-08-11T18:28:45;26.70;32.30
40738;DHT22;54759;48.094;-1.628;2022-08-11T18:32:02;26.80;32.30
40738;DHT22;54759;48.094;-1.628;2022-08-11T18:35:24;26.60;32.70
40738;DHT22;54759;48.094;-1.628;2022-08-11T18:38:41;26.80;32.10
40738;DHT22;54759;48.094;-1.628;2022-08-11T18:42:02;26.80;32.00
40738;DHT22;54759;48.094;-1.628;2022-08-11T18:45:32;26.80;32.10
40738;DHT22;54759;48.094;-1.628;2022-08-11T18:49:00;26.70;31.90
40738;DHT22;54759;48.094;-1.628;2022-08-11T18:52:18;26.80;31.90
40738;DHT22;54759;48.094;-1.628;2022-08-11T18:55:34;26.70;31.80
40738;DHT22;54759;48.094;-1.628;2022-08-11T18:58:49;26.70;31.80
40738;DHT22;54759;48.094;-1.628;2022-08-11T19:02:09;26.80;31.90
40738;DHT22;54759;48.094;-1.628;2022-08-11T19:05:29;26.70;31.80
40738;DHT22;54759;48.094;-1.628;2022-08-11T19:09:13;26.60;31.70
40738;DHT22;54759;48.094;-1.628;2022-08-11T19:12:32;26.70;31.80
40738;DHT22;54759;48.094;-1.628;2022-08-11T19:15:49;26.70;31.80
40738;DHT22;54759;48.094;-1.628;2022-08-11T19:19:08;26.70;31.80
40738;DHT22;54759;48.094;-1.628;2022-08-11T19:22:26;26.70;31.80
40738;DHT22;54759;48.094;-1.628;2022-08-11T19:25:45;26.80;31.90
40738;DHT22;54759;48.094;-1.628;2022-08-11T19:28:59;26.70;32.00
40738;DHT22;54759;48.094;-1.628;2022-08-11T19:32:38;26.80;32.10
40738;DHT22;54759;48.094;-1.628;2022-08-11T19:35:56;26.80;32.20
40738;DHT22;54759;48.094;-1.628;2022-08-11T19:39:10;26.70;32.10
40738;DHT22;54759;48.094;-1.628;2022-08-11T19:42:27;26.60;32.10
40738;DHT22;54759;48.094;-1.628;2022-08-11T19:45:45;26.60;32.20
40738;DHT22;54759;48.094;-1.628;2022-08-11T19:48:59;26.60;32.30
40738;DHT22;54759;48.094;-1.628;2022-08-11T19:52:17;26.60;32.40
40738;DHT22;54759;48.094;-1.628;2022-08-11T19:55:29;26.70;32.50
40738;DHT22;54759;48.094;-1.628;2022-08-11T19:58:46;26.50;32.50
40738;DHT22;54759;48.094;-1.628;2022-08-11T20:01:59;26.60;32.70
40738;DHT22;54759;48.094;-1.628;2022-08-11T20:05:19;26.60;32.70
40738;DHT22;54759;48.094;-1.628;2022-08-11T20:08:40;26.50;32.70
40738;DHT22;54759;48.094;-1.628;2022-08-11T20:12:01;26.50;32.80
40738;DHT22;54759;48.094;-1.628;2022-08-11T20:15:26;26.40;32.80
40738;DHT22;54759;48.094;-1.628;2022-08-11T20:18:40;26.50;33.00
40738;DHT22;54759;48.094;-1.628;2022-08-11T20:21:57;26.60;33.20
40738;DHT22;54759;48.094;-1.628;2022-08-11T20:25:12;26.30;33.00
40738;DHT22;54759;48.094;-1.628;2022-08-11T20:28:29;26.30;33.10
40738;DHT22;54759;48.094;-1.628;2022-08-11T20:31:47;26.40;33.30
40738;DHT22;54759;48.094;-1.628;2022-08-11T20:34:59;26.30;33.30
40738;DHT22;54759;48.094;-1.628;2022-08-11T20:38:17;26.40;34.10
40738;DHT22;54759;48.094;-1.628;2022-08-11T20:41:36;26.40;33.50